createdAt,value
2023-05-10T00:01:31.860Z,8.54
2023-05-10T00:06:35.139Z,8.49
2023-05-10T00:11:37.551Z,8.42
2023-05-10T00:16:41.125Z,8.36
2023-05-10T00:21:44.401Z,8.33
2023-05-10T00:26:46.389Z,8.27
2023-05-10T00:31:50.383Z,8.20
2023-05-10T00:36:56.924Z,8.14
2023-05-10T00:42:02.242Z,8.08
2023-05-10T00:47:05.942Z,8.05
2023-05-10T00:52:10.377Z,8.01
2023-05-10T00:57:14.783Z,7.92
2023-05-10T01:02:17.663Z,7.86
2023-05-10T01:07:21.026Z,7.80
2023-05-10T01:12:23.420Z,7.72
2023-05-10T01:17:27.278Z,7.67
2023-05-10T01:23:19.411Z,7.60
2023-05-10T01:28:50.620Z,7.53
2023-05-10T01:34:02.809Z,7.48
2023-05-10T01:39:23.212Z,7.42
2023-05-10T01:44:55.088Z,7.33
2023-05-10T01:50:05.051Z,7.27
2023-05-10T01:55:14.469Z,7.24
2023-05-10T02:00:21.377Z,7.20
2023-05-10T02:05:25.848Z,7.16
2023-05-10T02:10:30.532Z,7.15
2023-05-10T02:15:34.977Z,7.12
2023-05-10T02:20:40.436Z,7.11
2023-05-10T02:25:45.318Z,7.11
2023-05-10T02:30:49.072Z,7.13
2023-05-10T02:35:53.824Z,7.16
2023-05-10T02:40:57.510Z,7.17
2023-05-10T02:46:00.088Z,7.14
2023-05-10T02:51:08.747Z,7.13
2023-05-10T02:56:16.883Z,7.11
2023-05-10T03:01:21.970Z,7.12
2023-05-10T03:06:27.228Z,7.12
2023-05-10T03:11:34.127Z,7.14
2023-05-10T03:16:54.737Z,7.13
2023-05-10T03:22:06.391Z,7.16
2023-05-10T03:27:11.876Z,7.28
2023-05-10T03:32:15.965Z,7.43
2023-05-10T03:37:18.946Z,7.48
2023-05-10T03:42:21.242Z,7.68
2023-05-10T03:47:24.214Z,7.85
2023-05-10T03:52:27.786Z,8.07
2023-05-10T03:57:32.063Z,8.13
2023-05-10T04:02:36.236Z,8.22
2023-05-10T04:07:40.495Z,8.42
2023-05-10T04:12:44.078Z,9.56
2023-05-10T04:17:48.353Z,11.51
2023-05-10T04:22:51.901Z,11.97
2023-05-10T04:27:57.659Z,11.76
2023-05-10T04:33:00.759Z,12.06
2023-05-10T04:38:03.977Z,11.81
2023-05-10T04:43:08.258Z,11.63
2023-05-10T04:48:12.555Z,11.28
2023-05-10T04:53:16.236Z,10.73
2023-05-10T04:58:20.073Z,10.40
2023-05-10T05:04:00.913Z,10.23
2023-05-10T05:09:04.208Z,10.14
2023-05-10T05:14:07.848Z,11.17
2023-05-10T05:19:11.625Z,14.31
2023-05-10T05:24:14.241Z,16.84
2023-05-10T05:29:17.820Z,19.65
2023-05-10T05:34:22.549Z,21.59
2023-05-10T05:39:25.727Z,22.71
2023-05-10T05:44:31.452Z,23.46
2023-05-10T05:49:34.576Z,22.00
2023-05-10T05:54:39.203Z,22.38
2023-05-10T05:59:45.290Z,22.61
2023-05-10T06:04:49.276Z,20.88
2023-05-10T06:09:52.588Z,19.34
2023-05-10T06:14:55.353Z,18.01
2023-05-10T06:19:58.369Z,16.81
2023-05-10T06:25:02.031Z,15.80
2023-05-10T06:30:12.764Z,15.36
2023-05-10T06:35:17.580Z,14.94
2023-05-10T06:40:21.361Z,14.74
2023-05-10T06:45:24.399Z,14.72
2023-05-10T06:50:26.751Z,15.44
2023-05-10T06:55:30.201Z,16.41
2023-05-10T07:00:33.215Z,17.60
2023-05-10T07:05:36.236Z,19.12
2023-05-10T07:10:40.149Z,19.87
2023-05-10T07:15:43.678Z,20.03
2023-05-10T07:20:50.037Z,20.52
2023-05-10T07:25:53.662Z,20.61
2023-05-10T07:30:56.204Z,20.61
2023-05-10T07:36:00.080Z,20.73
2023-05-10T07:41:06.472Z,20.85
2023-05-10T07:46:11.915Z,20.70
2023-05-10T07:51:15.469Z,20.60
2023-05-10T07:56:33.087Z,20.71
2023-05-10T08:01:35.949Z,20.98
2023-05-10T08:06:39.064Z,20.44
2023-05-10T08:11:41.815Z,20.70
2023-05-10T08:16:44.905Z,20.95
2023-05-10T08:21:48.525Z,20.86
2023-05-10T08:26:51.881Z,20.76
2023-05-10T08:31:54.186Z,20.79
2023-05-10T08:36:58.230Z,20.93
2023-05-10T08:42:05.359Z,21.04
2023-05-10T08:47:10.451Z,21.04
2023-05-10T08:52:16.595Z,21.12
2023-05-10T08:57:21.398Z,21.20
2023-05-10T09:02:24.380Z,21.12
2023-05-10T09:07:28.729Z,20.89
2023-05-10T09:12:32.565Z,20.39
2023-05-10T09:17:35.876Z,20.31
2023-05-10T09:22:39.175Z,19.91
2023-05-10T09:27:46.492Z,19.94
2023-05-10T09:32:49.574Z,20.07
2023-05-10T09:37:54.721Z,20.17
2023-05-10T09:43:11.677Z,20.38
2023-05-10T09:48:15.097Z,20.34
2023-05-10T09:53:17.655Z,20.30
2023-05-10T09:58:22.604Z,20.22
2023-05-10T10:03:28.922Z,20.42
2023-05-10T10:08:34.494Z,20.61
2023-05-10T10:13:41.349Z,20.61
2023-05-10T10:18:45.195Z,20.70
2023-05-10T10:23:48.501Z,20.72
2023-05-10T10:29:13.421Z,20.66
2023-05-10T10:34:31.639Z,20.61
2023-05-10T10:39:38.057Z,20.81
2023-05-10T10:44:43.026Z,20.50
2023-05-10T10:49:52.379Z,20.72
2023-05-10T10:55:04.836Z,21.02
2023-05-10T11:00:33.698Z,20.99
2023-05-10T11:05:41.368Z,21.01
2023-05-10T11:10:54.751Z,21.00
2023-05-10T11:16:00.860Z,20.86
2023-05-10T11:21:10.120Z,20.75
2023-05-10T11:26:14.387Z,20.76
2023-05-10T11:31:20.194Z,21.02
2023-05-10T11:36:26.850Z,21.21
2023-05-10T11:41:30.621Z,20.96
2023-05-10T11:46:33.139Z,20.85
2023-05-10T11:51:40.048Z,20.88
2023-05-10T11:56:45.589Z,20.87
2023-05-10T12:01:49.646Z,20.95
2023-05-10T12:06:54.204Z,21.01
2023-05-10T12:11:58.017Z,21.00
2023-05-10T12:17:01.321Z,21.09
2023-05-10T12:22:06.465Z,21.03
2023-05-10T12:27:10.234Z,20.94
2023-05-10T12:32:13.841Z,20.71
2023-05-10T12:37:17.392Z,20.60
2023-05-10T12:42:21.686Z,20.48
2023-05-10T12:47:25.645Z,20.43
2023-05-10T12:52:29.431Z,20.62
2023-05-10T12:57:32.553Z,20.60
2023-05-10T13:02:37.695Z,20.49
2023-05-10T13:07:42.168Z,20.47
2023-05-10T13:12:47.791Z,20.39
2023-05-10T13:17:51.856Z,20.16
2023-05-10T13:22:57.382Z,20.02
2023-05-10T13:28:03.577Z,20.01
2023-05-10T13:33:07.400Z,20.08
2023-05-10T13:38:10.132Z,19.91
2023-05-10T13:43:12.970Z,19.81
2023-05-10T13:48:16.448Z,19.45
2023-05-10T13:53:22.196Z,19.52
2023-05-10T13:58:24.629Z,19.71
2023-05-10T14:03:27.242Z,19.87
2023-05-10T14:08:30.561Z,19.79
2023-05-10T14:13:33.740Z,19.86
2023-05-10T14:18:36.991Z,19.90
2023-05-10T14:23:42.326Z,19.86
2023-05-10T14:28:46.416Z,19.78
2023-05-10T14:33:50.854Z,19.51
2023-05-10T14:38:54.654Z,19.37
2023-05-10T14:44:00.573Z,19.32
2023-05-10T14:49:03.869Z,19.31
2023-05-10T14:54:08.934Z,19.50
2023-05-10T14:59:12.459Z,19.50
2023-05-10T15:04:18.616Z,19.53
2023-05-10T15:09:28.687Z,19.40
2023-05-10T15:14:33.245Z,19.07
2023-05-10T15:19:36.722Z,18.84
2023-05-10T15:24:39.196Z,18.82
2023-05-10T15:29:41.388Z,18.81
2023-05-10T15:34:44.095Z,18.70
2023-05-10T15:39:46.417Z,18.59
2023-05-10T15:44:50.822Z,18.55
2023-05-10T15:49:54.894Z,18.65
2023-05-10T15:54:58.510Z,18.75
2023-05-10T16:00:01.878Z,18.67
2023-05-10T16:05:04.919Z,18.38
2023-05-10T16:10:11.135Z,18.36
2023-05-10T16:15:14.299Z,18.36
2023-05-10T16:20:16.283Z,18.24
2023-05-10T16:25:20.157Z,18.14
2023-05-10T16:30:24.968Z,18.14
2023-05-10T16:35:29.711Z,18.04
2023-05-10T16:40:34.964Z,17.96
2023-05-10T16:45:37.614Z,17.77
2023-05-10T16:50:44.653Z,17.61
2023-05-10T16:55:48.067Z,17.47
2023-05-10T17:00:53.753Z,17.36
2023-05-10T17:05:57.539Z,17.27
2023-05-10T17:11:05.127Z,17.19
2023-05-10T17:16:09.104Z,16.99
2023-05-10T17:21:14.785Z,16.81
2023-05-10T17:26:21.363Z,16.66
2023-05-10T17:31:29.895Z,16.58
2023-05-10T17:36:38.697Z,16.44
2023-05-10T17:41:42.891Z,16.29
2023-05-10T17:46:49.978Z,16.14
2023-05-10T17:51:55.066Z,15.94
2023-05-10T17:57:01.993Z,15.81
2023-05-10T18:02:05.352Z,15.67
2023-05-10T18:07:09.711Z,15.50
2023-05-10T18:12:13.004Z,15.35
2023-05-10T18:17:17.961Z,15.17
2023-05-10T18:22:23.199Z,15.02
2023-05-10T18:27:26.977Z,14.87
2023-05-10T18:32:31.854Z,14.71
2023-05-10T18:37:37.051Z,14.61
2023-05-10T18:42:39.517Z,14.50
2023-05-10T18:47:44.002Z,14.36
2023-05-10T18:52:52.917Z,14.21
2023-05-10T18:57:58.803Z,14.07
2023-05-10T19:03:03.352Z,13.96
2023-05-10T19:08:08.089Z,13.87
2023-05-10T19:13:10.782Z,13.76
2023-05-10T19:18:15.512Z,13.66
2023-05-10T19:23:18.446Z,13.57
2023-05-10T19:28:21.485Z,13.49
2023-05-10T19:33:25.183Z,13.42
2023-05-10T19:38:28.800Z,13.32
2023-05-10T19:43:40.171Z,13.22
2023-05-10T19:48:43.545Z,13.13
2023-05-10T19:53:47.360Z,13.09
2023-05-10T19:58:52.919Z,13.04
2023-05-10T20:03:56.910Z,12.98
2023-05-10T20:09:00.860Z,12.93
2023-05-10T20:14:04.626Z,12.84
2023-05-10T20:19:09.161Z,12.67
2023-05-10T20:24:12.564Z,12.53
2023-05-10T20:29:19.422Z,12.42
2023-05-10T20:34:22.611Z,12.35
2023-05-10T20:39:26.369Z,12.23
2023-05-10T20:44:29.318Z,12.10
2023-05-10T20:49:38.130Z,11.95
2023-05-10T20:54:41.547Z,11.76
2023-05-10T20:59:44.601Z,11.51
2023-05-10T21:04:48.588Z,11.27
2023-05-10T21:09:53.557Z,11.06
2023-05-10T21:14:57.310Z,10.89
2023-05-10T21:20:01.587Z,10.74
2023-05-10T21:25:06.195Z,10.60
2023-05-10T21:30:11.049Z,10.48
2023-05-10T21:35:15.582Z,10.32
2023-05-10T21:40:19.540Z,10.17
2023-05-10T21:45:22.701Z,9.99
2023-05-10T21:50:25.140Z,9.83
2023-05-10T21:55:28.052Z,9.64
2023-05-10T22:00:34.180Z,9.41
2023-05-10T22:05:38.770Z,9.30
2023-05-10T22:10:42.999Z,9.23
2023-05-10T22:15:46.793Z,9.24
2023-05-10T22:20:50.959Z,9.38
2023-05-10T22:25:55.086Z,9.58
2023-05-10T22:30:58.784Z,9.75
2023-05-10T22:36:01.867Z,9.83
2023-05-10T22:41:04.614Z,9.89
2023-05-10T22:46:07.137Z,9.89
2023-05-10T22:51:10.507Z,9.89
2023-05-10T22:56:14.591Z,9.86
2023-05-10T23:01:17.470Z,9.86
2023-05-10T23:06:20.752Z,9.82
2023-05-10T23:11:24.515Z,9.80
2023-05-10T23:16:26.779Z,9.75
2023-05-10T23:21:32.006Z,9.71
2023-05-10T23:26:36.069Z,9.70
2023-05-10T23:31:45.266Z,9.69
2023-05-10T23:36:49.365Z,9.67
2023-05-10T23:41:52.087Z,9.65
2023-05-10T23:46:55.550Z,9.62
2023-05-10T23:51:58.742Z,9.60
2023-05-10T23:57:02.754Z,9.55
